sensor_id;sensor_type;location;lat;lon;timestamp;P1;durP1;ratioP1;P2;durP2;ratioP2
32094;SDS011;18608;53.688;10.748;2022-07-29T00:00:12;4.57;;;2.00;;
32094;SDS011;18608;53.688;10.748;2022-07-29T00:02:38;4.53;;;2.50;;
32094;SDS011;18608;53.688;10.748;2022-07-29T00:05:04;3.63;;;2.13;;
32094;SDS011;18608;53.688;10.748;2022-07-29T00:07:30;4.40;;;3.13;;
32094;SDS011;18608;53.688;10.748;2022-07-29T00:09:56;8.07;;;2.23;;
32094;SDS011;18608;53.688;10.748;2022-07-29T00:12:22;2.53;;;2.37;;
32094;SDS011;18608;53.688;10.748;2022-07-29T00:14:51;5.90;;;2.60;;
32094;SDS011;18608;53.688;10.748;2022-07-29T00:17:17;3.90;;;2.80;;
32094;SDS011;18608;53.688;10.748;2022-07-29T00:19:43;5.83;;;3.07;;
32094;SDS011;18608;53.688;10.748;2022-07-29T00:22:09;6.83;;;2.73;;
32094;SDS011;18608;53.688;10.748;2022-07-29T00:24:34;4.40;;;2.90;;
32094;SDS011;18608;53.688;10.748;2022-07-29T00:27:00;2.93;;;2.73;;
32094;SDS011;18608;53.688;10.748;2022-07-29T00:29:25;7.60;;;3.53;;
32094;SDS011;18608;53.688;10.748;2022-07-29T00:31:51;5.50;;;2.70;;
32094;SDS011;18608;53.688;10.748;2022-07-29T00:34:16;7.67;;;2.87;;
32094;SDS011;18608;53.688;10.748;2022-07-29T00:37:00;5.13;;;2.20;;
32094;SDS011;18608;53.688;10.748;2022-07-29T00:39:26;7.37;;;2.63;;
32094;SDS011;18608;53.688;10.748;2022-07-29T00:41:52;8.13;;;3.13;;
32094;SDS011;18608;53.688;10.748;2022-07-29T00:44:17;6.37;;;3.07;;
32094;SDS011;18608;53.688;10.748;2022-07-29T00:46:43;3.03;;;2.37;;
32094;SDS011;18608;53.688;10.748;2022-07-29T00:49:09;3.17;;;2.70;;
32094;SDS011;18608;53.688;10.748;2022-07-29T00:51:37;4.70;;;3.10;;
32094;SDS011;18608;53.688;10.748;2022-07-29T00:54:04;4.60;;;2.70;;
32094;SDS011;18608;53.688;10.748;2022-07-29T00:56:30;3.33;;;2.93;;
32094;SDS011;18608;53.688;10.748;2022-07-29T00:58:57;7.80;;;3.07;;
32094;SDS011;18608;53.688;10.748;2022-07-29T01:01:23;3.50;;;2.23;;
32094;SDS011;18608;53.688;10.748;2022-07-29T01:03:49;5.67;;;2.70;;
32094;SDS011;18608;53.688;10.748;2022-07-29T01:06:18;6.20;;;2.97;;
32094;SDS011;18608;53.688;10.748;2022-07-29T01:08:45;4.37;;;2.93;;
32094;SDS011;18608;53.688;10.748;2022-07-29T01:11:12;5.23;;;2.87;;
32094;SDS011;18608;53.688;10.748;2022-07-29T01:13:38;3.40;;;3.10;;
32094;SDS011;18608;53.688;10.748;2022-07-29T01:16:07;5.70;;;3.50;;
32094;SDS011;18608;53.688;10.748;2022-07-29T01:18:39;5.43;;;3.27;;
32094;SDS011;18608;53.688;10.748;2022-07-29T01:21:21;4.60;;;2.90;;
32094;SDS011;18608;53.688;10.748;2022-07-29T01:27:09;3.73;;;3.43;;
32094;SDS011;18608;53.688;10.748;2022-07-29T01:29:32;8.03;;;2.90;;
32094;SDS011;18608;53.688;10.748;2022-07-29T01:32:05;19.73;;;3.97;;
32094;SDS011;18608;53.688;10.748;2022-07-29T01:34:38;3.20;;;3.00;;
32094;SDS011;18608;53.688;10.748;2022-07-29T01:39:43;6.33;;;2.77;;
32094;SDS011;18608;53.688;10.748;2022-07-29T01:42:15;6.37;;;3.30;;
32094;SDS011;18608;53.688;10.748;2022-07-29T01:45:08;4.53;;;3.40;;
32094;SDS011;18608;53.688;10.748;2022-07-29T01:48:06;6.67;;;3.53;;
32094;SDS011;18608;53.688;10.748;2022-07-29T01:50:46;7.57;;;3.60;;
32094;SDS011;18608;53.688;10.748;2022-07-29T01:53:38;5.90;;;3.47;;
32094;SDS011;18608;53.688;10.748;2022-07-29T01:56:05;8.17;;;3.03;;
32094;SDS011;18608;53.688;10.748;2022-07-29T01:58:33;5.07;;;3.67;;
32094;SDS011;18608;53.688;10.748;2022-07-29T02:01:03;4.10;;;3.40;;
32094;SDS011;18608;53.688;10.748;2022-07-29T02:03:30;11.60;;;3.47;;
32094;SDS011;18608;53.688;10.748;2022-07-29T02:05:58;9.40;;;3.60;;
32094;SDS011;18608;53.688;10.748;2022-07-29T02:08:26;8.53;;;3.40;;
32094;SDS011;18608;53.688;10.748;2022-07-29T02:10:53;9.20;;;3.73;;
32094;SDS011;18608;53.688;10.748;2022-07-29T02:13:19;8.40;;;4.47;;
32094;SDS011;18608;53.688;10.748;2022-07-29T02:15:48;12.70;;;3.73;;
32094;SDS011;18608;53.688;10.748;2022-07-29T02:18:17;7.83;;;3.43;;
32094;SDS011;18608;53.688;10.748;2022-07-29T02:20:46;9.10;;;3.17;;
32094;SDS011;18608;53.688;10.748;2022-07-29T02:23:14;13.83;;;4.23;;
32094;SDS011;18608;53.688;10.748;2022-07-29T02:25:47;6.27;;;3.23;;
32094;SDS011;18608;53.688;10.748;2022-07-29T02:28:14;5.80;;;3.50;;
32094;SDS011;18608;53.688;10.748;2022-07-29T02:30:42;4.57;;;3.57;;
32094;SDS011;18608;53.688;10.748;2022-07-29T02:33:09;8.23;;;3.30;;
32094;SDS011;18608;53.688;10.748;2022-07-29T02:35:38;9.10;;;3.60;;
32094;SDS011;18608;53.688;10.748;2022-07-29T02:38:06;7.27;;;3.97;;
32094;SDS011;18608;53.688;10.748;2022-07-29T02:40:52;9.27;;;3.60;;
32094;SDS011;18608;53.688;10.748;2022-07-29T02:43:19;4.37;;;3.50;;
32094;SDS011;18608;53.688;10.748;2022-07-29T02:45:47;7.90;;;3.50;;
32094;SDS011;18608;53.688;10.748;2022-07-29T02:48:16;6.03;;;3.37;;
32094;SDS011;18608;53.688;10.748;2022-07-29T02:50:52;5.70;;;3.10;;
32094;SDS011;18608;53.688;10.748;2022-07-29T02:53:26;4.13;;;3.30;;
32094;SDS011;18608;53.688;10.748;2022-07-29T02:55:57;4.23;;;3.83;;
32094;SDS011;18608;53.688;10.748;2022-07-29T02:58:27;9.47;;;2.40;;
32094;SDS011;18608;53.688;10.748;2022-07-29T03:00:56;8.30;;;4.00;;
32094;SDS011;18608;53.688;10.748;2022-07-29T03:03:27;6.33;;;3.73;;
32094;SDS011;18608;53.688;10.748;2022-07-29T03:05:57;11.33;;;4.00;;
32094;SDS011;18608;53.688;10.748;2022-07-29T03:08:24;9.10;;;3.97;;
32094;SDS011;18608;53.688;10.748;2022-07-29T03:10:51;6.83;;;4.07;;
32094;SDS011;18608;53.688;10.748;2022-07-29T03:13:18;5.73;;;3.30;;
32094;SDS011;18608;53.688;10.748;2022-07-29T03:15:45;3.80;;;3.27;;
32094;SDS011;18608;53.688;10.748;2022-07-29T03:18:11;13.63;;;4.00;;
32094;SDS011;18608;53.688;10.748;2022-07-29T03:20:38;4.00;;;3.50;;
32094;SDS011;18608;53.688;10.748;2022-07-29T03:23:04;11.10;;;3.20;;
32094;SDS011;18608;53.688;10.748;2022-07-29T03:25:30;8.87;;;3.07;;
32094;SDS011;18608;53.688;10.748;2022-07-29T03:27:55;7.27;;;3.40;;
32094;SDS011;18608;53.688;10.748;2022-07-29T03:30:21;9.60;;;3.97;;
32094;SDS011;18608;53.688;10.748;2022-07-29T03:32:48;7.07;;;3.40;;
32094;SDS011;18608;53.688;10.748;2022-07-29T03:35:14;5.87;;;4.20;;
32094;SDS011;18608;53.688;10.748;2022-07-29T03:37:41;5.13;;;3.67;;
32094;SDS011;18608;53.688;10.748;2022-07-29T03:40:08;11.77;;;3.67;;
32094;SDS011;18608;53.688;10.748;2022-07-29T03:42:37;16.40;;;4.53;;
32094;SDS011;18608;53.688;10.748;2022-07-29T03:45:06;3.87;;;3.43;;
32094;SDS011;18608;53.688;10.748;2022-07-29T03:47:35;11.53;;;3.80;;
32094;SDS011;18608;53.688;10.748;2022-07-29T03:50:06;5.10;;;3.23;;
32094;SDS011;18608;53.688;10.748;2022-07-29T03:52:33;4.13;;;3.53;;
32094;SDS011;18608;53.688;10.748;2022-07-29T03:55:00;4.40;;;3.80;;
32094;SDS011;18608;53.688;10.748;2022-07-29T03:57:28;5.50;;;4.23;;
32094;SDS011;18608;53.688;10.748;2022-07-29T03:59:55;16.60;;;4.47;;
32094;SDS011;18608;53.688;10.748;2022-07-29T04:02:21;4.97;;;2.77;;
32094;SDS011;18608;53.688;10.748;2022-07-29T04:04:48;5.80;;;3.27;;
32094;SDS011;18608;53.688;10.748;2022-07-29T04:07:14;8.27;;;3.57;;
32094;SDS011;18608;53.688;10.748;2022-07-29T04:09:40;3.13;;;2.83;;
32094;SDS011;18608;53.688;10.748;2022-07-29T04:12:06;7.93;;;3.77;;
32094;SDS011;18608;53.688;10.748;2022-07-29T04:14:32;7.43;;;3.37;;
32094;SDS011;18608;53.688;10.748;2022-07-29T04:16:59;9.30;;;3.43;;
32094;SDS011;18608;53.688;10.748;2022-07-29T04:19:25;7.67;;;4.50;;
32094;SDS011;18608;53.688;10.748;2022-07-29T04:21:51;4.87;;;2.93;;
32094;SDS011;18608;53.688;10.748;2022-07-29T04:24:16;7.10;;;3.70;;
32094;SDS011;18608;53.688;10.748;2022-07-29T04:26:42;4.63;;;3.47;;
32094;SDS011;18608;53.688;10.748;2022-07-29T04:29:08;13.23;;;3.23;;
32094;SDS011;18608;53.688;10.748;2022-07-29T04:31:34;8.73;;;3.40;;
32094;SDS011;18608;53.688;10.748;2022-07-29T04:33:59;5.87;;;3.50;;
32094;SDS011;18608;53.688;10.748;2022-07-29T04:36:25;4.10;;;3.03;;
32094;SDS011;18608;53.688;10.748;2022-07-29T04:38:50;3.87;;;3.50;;
32094;SDS011;18608;53.688;10.748;2022-07-29T04:41:16;3.67;;;2.70;;
32094;SDS011;18608;53.688;10.748;2022-07-29T04:43:42;10.63;;;3.80;;
32094;SDS011;18608;53.688;10.748;2022-07-29T04:46:07;3.83;;;3.03;;
32094;SDS011;18608;53.688;10.748;2022-07-29T04:48:33;8.73;;;2.97;;
32094;SDS011;18608;53.688;10.748;2022-07-29T04:50:58;5.90;;;3.43;;
32094;SDS011;18608;53.688;10.748;2022-07-29T04:53:24;3.27;;;2.97;;
32094;SDS011;18608;53.688;10.748;2022-07-29T04:55:50;8.83;;;4.10;;
32094;SDS011;18608;53.688;10.748;2022-07-29T04:58:16;7.23;;;3.33;;
32094;SDS011;18608;53.688;10.748;2022-07-29T05:00:41;3.53;;;3.20;;
32094;SDS011;18608;53.688;10.748;2022-07-29T05:03:07;6.90;;;2.90;;
32094;SDS011;18608;53.688;10.748;2022-07-29T05:05:32;2.33;;;2.07;;
32094;SDS011;18608;53.688;10.748;2022-07-29T05:07:58;4.83;;;3.10;;
32094;SDS011;18608;53.688;10.748;2022-07-29T05:10:24;5.13;;;3.47;;
32094;SDS011;18608;53.688;10.748;2022-07-29T05:12:50;6.97;;;3.57;;
32094;SDS011;18608;53.688;10.748;2022-07-29T05:15:15;3.20;;;2.30;;
32094;SDS011;18608;53.688;10.748;2022-07-29T05:17:42;3.53;;;2.87;;
32094;SDS011;18608;53.688;10.748;2022-07-29T05:20:08;3.07;;;2.77;;
32094;SDS011;18608;53.688;10.748;2022-07-29T05:22:34;3.63;;;2.43;;
32094;SDS011;18608;53.688;10.748;2022-07-29T05:25:00;3.00;;;2.80;;
32094;SDS011;18608;53.688;10.748;2022-07-29T05:27:25;4.07;;;3.63;;
32094;SDS011;18608;53.688;10.748;2022-07-29T05:29:51;6.33;;;2.97;;
32094;SDS011;18608;53.688;10.748;2022-07-29T05:32:16;5.00;;;3.37;;
32094;SDS011;18608;53.688;10.748;2022-07-29T05:34:42;4.97;;;3.20;;
32094;SDS011;18608;53.688;10.748;2022-07-29T05:37:08;10.83;;;2.77;;
32094;SDS011;18608;53.688;10.748;2022-07-29T05:39:33;2.33;;;2.17;;
32094;SDS011;18608;53.688;10.748;2022-07-29T05:41:59;5.60;;;3.50;;
32094;SDS011;18608;53.688;10.748;2022-07-29T05:44:25;4.07;;;1.90;;
32094;SDS011;18608;53.688;10.748;2022-07-29T05:46:50;4.80;;;2.73;;
32094;SDS011;18608;53.688;10.748;2022-07-29T05:49:16;3.33;;;2.90;;
32094;SDS011;18608;53.688;10.748;2022-07-29T05:51:41;7.63;;;2.53;;
32094;SDS011;18608;53.688;10.748;2022-07-29T05:54:07;5.57;;;3.17;;
32094;SDS011;18608;53.688;10.748;2022-07-29T05:56:35;5.20;;;3.60;;
32094;SDS011;18608;53.688;10.748;2022-07-29T05:59:01;4.50;;;2.43;;
32094;SDS011;18608;53.688;10.748;2022-07-29T06:01:27;3.90;;;2.57;;
32094;SDS011;18608;53.688;10.748;2022-07-29T06:03:53;5.43;;;2.40;;
32094;SDS011;18608;53.688;10.748;2022-07-29T06:06:18;8.00;;;2.67;;
32094;SDS011;18608;53.688;10.748;2022-07-29T06:08:44;9.43;;;3.10;;
32094;SDS011;18608;53.688;10.748;2022-07-29T06:11:09;11.63;;;4.20;;
32094;SDS011;18608;53.688;10.748;2022-07-29T06:13:35;7.87;;;2.53;;
32094;SDS011;18608;53.688;10.748;2022-07-29T06:16:00;5.53;;;3.30;;
32094;SDS011;18608;53.688;10.748;2022-07-29T06:18:26;6.97;;;3.53;;
32094;SDS011;18608;53.688;10.748;2022-07-29T06:20:52;9.93;;;3.20;;
32094;SDS011;18608;53.688;10.748;2022-07-29T06:23:18;3.33;;;2.50;;
32094;SDS011;18608;53.688;10.748;2022-07-29T06:25:45;8.33;;;2.70;;
32094;SDS011;18608;53.688;10.748;2022-07-29T06:28:11;12.63;;;3.03;;
32094;SDS011;18608;53.688;10.748;2022-07-29T06:30:37;5.87;;;2.70;;
32094;SDS011;18608;53.688;10.748;2022-07-29T06:33:03;5.23;;;2.33;;
32094;SDS011;18608;53.688;10.748;2022-07-29T06:35:28;7.70;;;2.57;;
32094;SDS011;18608;53.688;10.748;2022-07-29T06:37:54;3.13;;;2.03;;
32094;SDS011;18608;53.688;10.748;2022-07-29T06:40:20;9.20;;;2.90;;
32094;SDS011;18608;53.688;10.748;2022-07-29T06:43:04;2.87;;;2.63;;
32094;SDS011;18608;53.688;10.748;2022-07-29T06:45:30;3.37;;;2.37;;
32094;SDS011;18608;53.688;10.748;2022-07-29T06:47:58;4.80;;;2.50;;
32094;SDS011;18608;53.688;10.748;2022-07-29T06:50:24;7.53;;;2.47;;
32094;SDS011;18608;53.688;10.748;2022-07-29T06:52:50;6.40;;;3.00;;
32094;SDS011;18608;53.688;10.748;2022-07-29T06:55:16;8.03;;;3.37;;
32094;SDS011;18608;53.688;10.748;2022-07-29T06:57:44;10.17;;;2.53;;
32094;SDS011;18608;53.688;10.748;2022-07-29T07:00:10;2.37;;;2.17;;
32094;SDS011;18608;53.688;10.748;2022-07-29T07:02:36;7.53;;;2.57;;
32094;SDS011;18608;53.688;10.748;2022-07-29T07:05:01;7.50;;;3.03;;
32094;SDS011;18608;53.688;10.748;2022-07-29T07:07:27;5.00;;;2.40;;
32094;SDS011;18608;53.688;10.748;2022-07-29T07:09:53;5.87;;;2.47;;
32094;SDS011;18608;53.688;10.748;2022-07-29T07:12:18;8.73;;;2.60;;
32094;SDS011;18608;53.688;10.748;2022-07-29T07:14:44;4.53;;;2.20;;
32094;SDS011;18608;53.688;10.748;2022-07-29T07:17:10;8.63;;;2.57;;
32094;SDS011;18608;53.688;10.748;2022-07-29T07:19:36;3.43;;;1.80;;
32094;SDS011;18608;53.688;10.748;2022-07-29T07:22:02;6.53;;;3.87;;
32094;SDS011;18608;53.688;10.748;2022-07-29T07:24:28;7.60;;;2.20;;
32094;SDS011;18608;53.688;10.748;2022-07-29T07:26:54;4.27;;;2.60;;
32094;SDS011;18608;53.688;10.748;2022-07-29T07:29:20;10.93;;;2.20;;
32094;SDS011;18608;53.688;10.748;2022-07-29T07:31:46;2.13;;;2.00;;
32094;SDS011;18608;53.688;10.748;2022-07-29T07:34:12;7.03;;;2.23;;
32094;SDS011;18608;53.688;10.748;2022-07-29T07:36:38;2.70;;;2.00;;
32094;SDS011;18608;53.688;10.748;2022-07-29T07:39:04;2.57;;;1.90;;
32094;SDS011;18608;53.688;10.748;2022-07-29T07:41:30;3.20;;;1.90;;
32094;SDS011;18608;53.688;10.748;2022-07-29T07:43:56;5.03;;;2.40;;
32094;SDS011;18608;53.688;10.748;2022-07-29T07:46:22;27.97;;;2.10;;
32094;SDS011;18608;53.688;10.748;2022-07-29T07:48:48;2.80;;;2.20;;
32094;SDS011;18608;53.688;10.748;2022-07-29T07:51:14;4.30;;;2.20;;
32094;SDS011;18608;53.688;10.748;2022-07-29T07:53:40;5.70;;;2.70;;
32094;SDS011;18608;53.688;10.748;2022-07-29T07:56:05;4.70;;;2.17;;
32094;SDS011;18608;53.688;10.748;2022-07-29T07:58:31;6.87;;;2.17;;
32094;SDS011;18608;53.688;10.748;2022-07-29T08:00:58;3.37;;;2.13;;
32094;SDS011;18608;53.688;10.748;2022-07-29T08:03:23;4.10;;;1.83;;
32094;SDS011;18608;53.688;10.748;2022-07-29T08:05:49;4.97;;;2.13;;
32094;SDS011;18608;53.688;10.748;2022-07-29T08:08:19;7.83;;;2.20;;
32094;SDS011;18608;53.688;10.748;2022-07-29T08:10:45;1.93;;;1.83;;
32094;SDS011;18608;53.688;10.748;2022-07-29T08:13:17;5.03;;;2.00;;
32094;SDS011;18608;53.688;10.748;2022-07-29T08:15:43;5.97;;;2.03;;
32094;SDS011;18608;53.688;10.748;2022-07-29T08:18:10;2.73;;;1.63;;
32094;SDS011;18608;53.688;10.748;2022-07-29T08:20:37;2.60;;;2.40;;
32094;SDS011;18608;53.688;10.748;2022-07-29T08:23:04;2.87;;;2.63;;
32094;SDS011;18608;53.688;10.748;2022-07-29T08:25:40;5.30;;;2.00;;
32094;SDS011;18608;53.688;10.748;2022-07-29T08:28:06;3.47;;;2.60;;
32094;SDS011;18608;53.688;10.748;2022-07-29T08:30:32;2.30;;;2.10;;
32094;SDS011;18608;53.688;10.748;2022-07-29T08:32:59;6.40;;;2.67;;
32094;SDS011;18608;53.688;10.748;2022-07-29T08:35:25;7.60;;;2.50;;
32094;SDS011;18608;53.688;10.748;2022-07-29T08:37:51;6.67;;;1.80;;
32094;SDS011;18608;53.688;10.748;2022-07-29T08:40:17;2.20;;;2.00;;
32094;SDS011;18608;53.688;10.748;2022-07-29T08:42:45;2.60;;;1.73;;
32094;SDS011;18608;53.688;10.748;2022-07-29T08:45:11;3.77;;;2.20;;
32094;SDS011;18608;53.688;10.748;2022-07-29T08:47:40;5.73;;;2.47;;
32094;SDS011;18608;53.688;10.748;2022-07-29T08:50:09;6.33;;;2.40;;
32094;SDS011;18608;53.688;10.748;2022-07-29T08:52:36;6.60;;;2.00;;
32094;SDS011;18608;53.688;10.748;2022-07-29T08:55:03;5.33;;;2.00;;
32094;SDS011;18608;53.688;10.748;2022-07-29T08:57:30;4.33;;;1.57;;
32094;SDS011;18608;53.688;10.748;2022-07-29T08:59:57;4.63;;;1.93;;
32094;SDS011;18608;53.688;10.748;2022-07-29T09:02:27;6.70;;;1.70;;
32094;SDS011;18608;53.688;10.748;2022-07-29T09:04:54;12.63;;;2.40;;
32094;SDS011;18608;53.688;10.748;2022-07-29T09:07:22;2.90;;;1.90;;
32094;SDS011;18608;53.688;10.748;2022-07-29T09:09:47;6.97;;;2.83;;
32094;SDS011;18608;53.688;10.748;2022-07-29T09:12:13;3.47;;;1.63;;
32094;SDS011;18608;53.688;10.748;2022-07-29T09:14:39;3.70;;;1.90;;
32094;SDS011;18608;53.688;10.748;2022-07-29T09:17:05;2.67;;;1.47;;
32094;SDS011;18608;53.688;10.748;2022-07-29T09:19:33;5.23;;;2.30;;
32094;SDS011;18608;53.688;10.748;2022-07-29T09:22:00;4.47;;;1.83;;
32094;SDS011;18608;53.688;10.748;2022-07-29T09:24:43;1.70;;;1.60;;
32094;SDS011;18608;53.688;10.748;2022-07-29T09:27:21;3.83;;;1.73;;
32094;SDS011;18608;53.688;10.748;2022-07-29T09:32:31;3.43;;;1.30;;
32094;SDS011;18608;53.688;10.748;2022-07-29T09:35:17;3.63;;;1.83;;
32094;SDS011;18608;53.688;10.748;2022-07-29T09:37:45;7.73;;;1.87;;
32094;SDS011;18608;53.688;10.748;2022-07-29T09:40:18;9.67;;;1.57;;
32094;SDS011;18608;53.688;10.748;2022-07-29T09:42:45;5.33;;;1.90;;
32094;SDS011;18608;53.688;10.748;2022-07-29T09:45:12;2.43;;;2.17;;
32094;SDS011;18608;53.688;10.748;2022-07-29T09:47:50;3.20;;;1.50;;
32094;SDS011;18608;53.688;10.748;2022-07-29T09:50:16;3.27;;;1.63;;
32094;SDS011;18608;53.688;10.748;2022-07-29T09:52:45;3.13;;;1.83;;
32094;SDS011;18608;53.688;10.748;2022-07-29T09:55:12;2.73;;;2.00;;
32094;SDS011;18608;53.688;10.748;2022-07-29T09:57:38;7.50;;;2.33;;
32094;SDS011;18608;53.688;10.748;2022-07-29T10:02:34;3.00;;;1.60;;
32094;SDS011;18608;53.688;10.748;2022-07-29T10:05:02;2.50;;;1.60;;
32094;SDS011;18608;53.688;10.748;2022-07-29T10:10:19;8.07;;;1.50;;
32094;SDS011;18608;53.688;10.748;2022-07-29T10:12:48;6.73;;;1.63;;
32094;SDS011;18608;53.688;10.748;2022-07-29T10:15:15;8.10;;;2.07;;
32094;SDS011;18608;53.688;10.748;2022-07-29T10:17:41;2.43;;;1.73;;
32094;SDS011;18608;53.688;10.748;2022-07-29T10:20:08;3.53;;;1.40;;
32094;SDS011;18608;53.688;10.748;2022-07-29T10:22:34;4.10;;;1.30;;
32094;SDS011;18608;53.688;10.748;2022-07-29T10:25:00;3.60;;;1.40;;
32094;SDS011;18608;53.688;10.748;2022-07-29T10:27:26;7.13;;;1.50;;
32094;SDS011;18608;53.688;10.748;2022-07-29T10:29:53;3.20;;;1.23;;
32094;SDS011;18608;53.688;10.748;2022-07-29T10:43:37;6.27;;;2.37;;
32094;SDS011;18608;53.688;10.748;2022-07-29T10:46:07;7.23;;;2.07;;
32094;SDS011;18608;53.688;10.748;2022-07-29T10:48:34;5.07;;;1.30;;
32094;SDS011;18608;53.688;10.748;2022-07-29T10:56:31;2.10;;;1.90;;
32094;SDS011;18608;53.688;10.748;2022-07-29T11:01:45;2.70;;;1.43;;
32094;SDS011;18608;53.688;10.748;2022-07-29T11:07:08;2.40;;;1.53;;
32094;SDS011;18608;53.688;10.748;2022-07-29T11:09:34;6.43;;;1.87;;
32094;SDS011;18608;53.688;10.748;2022-07-29T11:12:00;7.13;;;1.10;;
32094;SDS011;18608;53.688;10.748;2022-07-29T11:17:16;9.03;;;2.00;;
32094;SDS011;18608;53.688;10.748;2022-07-29T11:19:42;2.80;;;1.60;;
32094;SDS011;18608;53.688;10.748;2022-07-29T11:22:08;1.70;;;1.23;;
32094;SDS011;18608;53.688;10.748;2022-07-29T11:24:35;3.47;;;1.33;;
32094;SDS011;18608;53.688;10.748;2022-07-29T11:27:17;3.27;;;1.73;;
32094;SDS011;18608;53.688;10.748;2022-07-29T11:29:48;7.00;;;1.60;;
32094;SDS011;18608;53.688;10.748;2022-07-29T11:32:15;10.40;;;1.70;;
32094;SDS011;18608;53.688;10.748;2022-07-29T11:34:44;3.00;;;1.90;;
32094;SDS011;18608;53.688;10.748;2022-07-29T11:39:41;4.40;;;1.60;;
32094;SDS011;18608;53.688;10.748;2022-07-29T11:47:31;4.70;;;1.70;;
32094;SDS011;18608;53.688;10.748;2022-07-29T11:49:58;4.90;;;2.00;;
32094;SDS011;18608;53.688;10.748;2022-07-29T11:52:44;3.30;;;1.80;;
32094;SDS011;18608;53.688;10.748;2022-07-29T11:55:15;3.37;;;1.50;;
32094;SDS011;18608;53.688;10.748;2022-07-29T11:57:50;2.53;;;1.50;;
32094;SDS011;18608;53.688;10.748;2022-07-29T12:00:21;3.67;;;1.47;;
32094;SDS011;18608;53.688;10.748;2022-07-29T12:02:48;3.23;;;1.50;;
32094;SDS011;18608;53.688;10.748;2022-07-29T12:05:14;2.13;;;1.60;;
32094;SDS011;18608;53.688;10.748;2022-07-29T12:07:40;2.20;;;1.53;;
32094;SDS011;18608;53.688;10.748;2022-07-29T12:10:06;17.20;;;1.93;;
32094;SDS011;18608;53.688;10.748;2022-07-29T12:12:33;4.83;;;1.43;;
32094;SDS011;18608;53.688;10.748;2022-07-29T12:15:15;5.63;;;1.50;;
32094;SDS011;18608;53.688;10.748;2022-07-29T12:17:43;7.60;;;1.60;;
32094;SDS011;18608;53.688;10.748;2022-07-29T12:20:09;4.20;;;1.60;;
32094;SDS011;18608;53.688;10.748;2022-07-29T12:22:36;5.83;;;2.73;;
32094;SDS011;18608;53.688;10.748;2022-07-29T12:25:08;6.13;;;2.00;;
32094;SDS011;18608;53.688;10.748;2022-07-29T12:27:40;10.20;;;2.80;;
32094;SDS011;18608;53.688;10.748;2022-07-29T12:30:08;5.63;;;1.70;;
32094;SDS011;18608;53.688;10.748;2022-07-29T12:32:36;8.10;;;2.63;;
32094;SDS011;18608;53.688;10.748;2022-07-29T12:35:04;8.70;;;2.17;;
32094;SDS011;18608;53.688;10.748;2022-07-29T12:37:34;7.30;;;1.93;;
32094;SDS011;18608;53.688;10.748;2022-07-29T12:40:02;3.63;;;2.60;;
32094;SDS011;18608;53.688;10.748;2022-07-29T12:42:29;2.83;;;1.67;;
32094;SDS011;18608;53.688;10.748;2022-07-29T12:44:55;2.40;;;2.10;;
32094;SDS011;18608;53.688;10.748;2022-07-29T12:47:21;14.57;;;2.83;;
32094;SDS011;18608;53.688;10.748;2022-07-29T12:49:47;5.23;;;2.13;;
32094;SDS011;18608;53.688;10.748;2022-07-29T12:52:23;14.17;;;3.10;;
32094;SDS011;18608;53.688;10.748;2022-07-29T12:54:49;8.40;;;2.80;;
32094;SDS011;18608;53.688;10.748;2022-07-29T12:57:15;6.77;;;2.57;;
32094;SDS011;18608;53.688;10.748;2022-07-29T12:59:41;2.63;;;1.60;;
32094;SDS011;18608;53.688;10.748;2022-07-29T13:02:07;6.13;;;2.97;;
32094;SDS011;18608;53.688;10.748;2022-07-29T13:04:54;2.30;;;2.13;;
32094;SDS011;18608;53.688;10.748;2022-07-29T13:07:26;11.90;;;2.30;;
32094;SDS011;18608;53.688;10.748;2022-07-29T13:09:54;1.97;;;1.83;;
32094;SDS011;18608;53.688;10.748;2022-07-29T13:12:34;8.10;;;2.50;;
32094;SDS011;18608;53.688;10.748;2022-07-29T13:15:11;17.80;;;3.17;;
32094;SDS011;18608;53.688;10.748;2022-07-29T13:17:41;3.80;;;1.77;;
32094;SDS011;18608;53.688;10.748;2022-07-29T13:20:09;2.60;;;1.90;;
32094;SDS011;18608;53.688;10.748;2022-07-29T13:22:37;6.20;;;2.33;;
32094;SDS011;18608;53.688;10.748;2022-07-29T13:25:05;7.13;;;2.53;;
32094;SDS011;18608;53.688;10.748;2022-07-29T13:27:34;3.23;;;2.07;;
32094;SDS011;18608;53.688;10.748;2022-07-29T13:30:02;9.17;;;2.40;;
32094;SDS011;18608;53.688;10.748;2022-07-29T13:32:29;2.97;;;2.27;;
32094;SDS011;18608;53.688;10.748;2022-07-29T13:34:56;4.90;;;2.30;;
32094;SDS011;18608;53.688;10.748;2022-07-29T13:37:24;11.47;;;3.57;;
32094;SDS011;18608;53.688;10.748;2022-07-29T13:39:50;3.87;;;2.30;;
32094;SDS011;18608;53.688;10.748;2022-07-29T13:42:17;7.00;;;2.20;;
32094;SDS011;18608;53.688;10.748;2022-07-29T13:44:43;8.63;;;2.50;;
32094;SDS011;18608;53.688;10.748;2022-07-29T13:47:08;4.03;;;2.00;;
32094;SDS011;18608;53.688;10.748;2022-07-29T13:49:34;9.70;;;2.57;;
32094;SDS011;18608;53.688;10.748;2022-07-29T13:52:00;3.77;;;2.10;;
32094;SDS011;18608;53.688;10.748;2022-07-29T13:54:26;5.70;;;1.77;;
32094;SDS011;18608;53.688;10.748;2022-07-29T13:56:51;2.87;;;2.30;;
32094;SDS011;18608;53.688;10.748;2022-07-29T13:59:17;9.63;;;2.70;;
32094;SDS011;18608;53.688;10.748;2022-07-29T14:01:43;3.93;;;2.40;;
32094;SDS011;18608;53.688;10.748;2022-07-29T14:04:09;7.77;;;2.17;;
32094;SDS011;18608;53.688;10.748;2022-07-29T14:06:35;4.93;;;2.10;;
32094;SDS011;18608;53.688;10.748;2022-07-29T14:09:01;4.57;;;2.47;;
32094;SDS011;18608;53.688;10.748;2022-07-29T14:11:27;3.50;;;2.13;;
32094;SDS011;18608;53.688;10.748;2022-07-29T14:13:53;7.40;;;3.03;;
32094;SDS011;18608;53.688;10.748;2022-07-29T14:16:18;6.07;;;2.93;;
32094;SDS011;18608;53.688;10.748;2022-07-29T14:18:44;10.43;;;2.23;;
32094;SDS011;18608;53.688;10.748;2022-07-29T14:21:10;3.93;;;2.17;;
32094;SDS011;18608;53.688;10.748;2022-07-29T14:23:36;6.37;;;2.63;;
32094;SDS011;18608;53.688;10.748;2022-07-29T14:26:02;7.13;;;3.10;;
32094;SDS011;18608;53.688;10.748;2022-07-29T14:28:28;6.80;;;2.73;;
32094;SDS011;18608;53.688;10.748;2022-07-29T14:30:53;6.10;;;2.83;;
32094;SDS011;18608;53.688;10.748;2022-07-29T14:33:19;4.73;;;2.57;;
32094;SDS011;18608;53.688;10.748;2022-07-29T14:35:45;6.53;;;2.23;;
32094;SDS011;18608;53.688;10.748;2022-07-29T14:38:10;9.80;;;2.60;;
32094;SDS011;18608;53.688;10.748;2022-07-29T14:40:36;5.07;;;2.40;;
32094;SDS011;18608;53.688;10.748;2022-07-29T14:43:02;6.30;;;2.27;;
32094;SDS011;18608;53.688;10.748;2022-07-29T14:45:29;8.50;;;2.70;;
32094;SDS011;18608;53.688;10.748;2022-07-29T14:47:54;7.40;;;2.17;;
32094;SDS011;18608;53.688;10.748;2022-07-29T14:50:20;7.50;;;2.60;;
32094;SDS011;18608;53.688;10.748;2022-07-29T14:52:46;5.47;;;2.33;;
32094;SDS011;18608;53.688;10.748;2022-07-29T14:55:11;10.43;;;2.63;;
32094;SDS011;18608;53.688;10.748;2022-07-29T14:57:37;16.80;;;2.40;;
32094;SDS011;18608;53.688;10.748;2022-07-29T15:00:06;6.57;;;2.10;;
32094;SDS011;18608;53.688;10.748;2022-07-29T15:02:32;8.50;;;2.30;;
32094;SDS011;18608;53.688;10.748;2022-07-29T15:04:58;8.13;;;2.80;;
32094;SDS011;18608;53.688;10.748;2022-07-29T15:07:24;2.43;;;2.23;;
32094;SDS011;18608;53.688;10.748;2022-07-29T15:09:50;5.70;;;2.10;;
32094;SDS011;18608;53.688;10.748;2022-07-29T15:12:15;2.97;;;2.10;;
32094;SDS011;18608;53.688;10.748;2022-07-29T15:14:41;2.70;;;2.40;;
32094;SDS011;18608;53.688;10.748;2022-07-29T15:17:07;8.47;;;2.27;;
32094;SDS011;18608;53.688;10.748;2022-07-29T15:19:32;3.90;;;2.50;;
32094;SDS011;18608;53.688;10.748;2022-07-29T15:21:58;2.43;;;1.97;;